createdAt,value
2018-12-25T12:38:40.764Z,13.80
2018-12-25T12:41:08.675Z,11.08
2018-12-25T12:43:37.024Z,17.50
2018-12-25T12:46:06.949Z,15.60
2018-12-25T12:48:35.572Z,8.80
2018-12-25T12:51:04.525Z,8.13
2018-12-25T12:53:33.674Z,8.48
2018-12-25T12:58:30.659Z,7.42
2018-12-25T13:03:27.562Z,8.53
2018-12-25T13:08:24.676Z,11.00
2018-12-25T13:13:22.866Z,11.93
2018-12-25T13:22:54.111Z,10.90
2018-12-25T13:25:17.925Z,11.20
2018-12-25T13:27:45.746Z,7.78
2018-12-25T13:32:44.402Z,8.60
2018-12-25T13:35:11.815Z,6.12
2018-12-25T13:37:39.484Z,7.83
2018-12-25T13:40:06.895Z,9.40
2018-12-25T13:42:34.494Z,7.15
2018-12-25T13:45:01.996Z,4.50
2018-12-25T13:47:29.416Z,6.95
2018-12-25T13:49:56.864Z,5.92
2018-12-25T13:52:25.100Z,9.23
2018-12-25T13:54:53.146Z,9.08
2018-12-25T13:57:20.734Z,11.68
2018-12-25T14:02:17.547Z,12.40
2018-12-25T14:04:44.839Z,13.98
2018-12-25T14:07:12.893Z,12.28
2018-12-25T14:09:40.740Z,9.98
2018-12-25T14:19:31.329Z,8.50
2018-12-25T14:21:59.238Z,12.15
2018-12-25T14:24:26.999Z,8.15
2018-12-25T14:27:45.485Z,6.77
2018-12-25T14:30:12.785Z,12.23
2018-12-25T14:32:40.238Z,8.85
2018-12-25T14:35:07.515Z,8.45
2018-12-25T14:37:34.983Z,7.78
2018-12-25T14:40:02.421Z,13.08
2018-12-25T14:42:30.189Z,11.08
2018-12-25T14:44:58.425Z,6.90
2018-12-25T14:47:26.426Z,10.53
2018-12-25T14:49:54.524Z,17.12
2018-12-25T14:52:22.601Z,21.75
2018-12-25T14:54:50.606Z,15.93
2018-12-25T14:57:17.866Z,14.93
2018-12-25T14:59:45.543Z,24.00
2018-12-25T15:02:12.981Z,17.65
2018-12-25T15:04:40.529Z,24.92
2018-12-25T15:07:08.466Z,19.23
2018-12-25T15:09:36.350Z,19.48
2018-12-25T15:12:04.050Z,18.90
2018-12-25T15:14:31.691Z,16.40
2018-12-25T15:20:11.631Z,11.30
2018-12-25T15:22:40.662Z,10.23
2018-12-25T15:25:08.417Z,12.10
2018-12-25T15:27:36.431Z,11.40
2018-12-25T15:30:04.480Z,15.72
2018-12-25T15:32:31.760Z,20.25
2018-12-25T15:43:54.714Z,29.02
2018-12-25T15:48:49.237Z,21.85
2018-12-25T15:51:16.600Z,28.70
2018-12-25T15:53:44.060Z,20.57
2018-12-25T15:56:11.699Z,24.05
2018-12-25T16:01:06.410Z,15.80
2018-12-25T16:03:33.936Z,14.45
2018-12-25T16:06:01.375Z,19.90
2018-12-25T16:08:28.966Z,13.85
2018-12-25T16:10:56.811Z,17.32
2018-12-25T16:13:25.383Z,15.40
2018-12-25T16:15:53.938Z,20.77
2018-12-25T16:18:22.416Z,25.12
2018-12-25T16:20:50.335Z,18.65
2018-12-25T16:23:17.718Z,23.98
2018-12-25T16:28:17.744Z,33.05
2018-12-25T16:33:13.225Z,28.90
2018-12-25T16:35:42.091Z,25.60
2018-12-25T16:38:09.800Z,25.17
2018-12-25T16:40:38.849Z,26.82
2018-12-25T16:43:06.488Z,25.27
2018-12-25T16:45:34.722Z,29.63
2018-12-25T16:48:02.496Z,25.30
2018-12-25T16:50:29.795Z,22.55
2018-12-25T16:52:57.580Z,25.37
2018-12-25T16:55:25.367Z,21.50
2018-12-25T16:57:52.936Z,29.67
2018-12-25T17:00:21.439Z,29.32
2018-12-25T17:02:50.243Z,32.83
2018-12-25T17:05:18.460Z,29.25
2018-12-25T17:07:45.985Z,29.52
2018-12-25T17:10:13.400Z,31.90
2018-12-25T17:12:40.770Z,37.30
2018-12-25T17:17:35.856Z,40.48
2018-12-25T17:20:03.482Z,44.23
2018-12-25T17:22:31.434Z,53.58
2018-12-25T17:24:59.803Z,53.65
2018-12-25T17:27:27.611Z,52.78
2018-12-25T17:29:55.244Z,39.67
2018-12-25T17:32:22.888Z,41.28
2018-12-25T17:34:51.359Z,54.87
2018-12-25T17:37:18.632Z,40.23
2018-12-25T17:39:46.248Z,39.25
2018-12-25T17:42:14.460Z,34.38
2018-12-25T17:44:42.337Z,34.00
2018-12-25T17:47:09.589Z,31.33
2018-12-25T17:49:37.963Z,27.65
2018-12-25T17:52:05.765Z,32.53
2018-12-25T17:57:01.051Z,31.43
2018-12-25T17:59:29.247Z,27.80
2018-12-25T18:01:57.370Z,27.85
2018-12-25T18:04:25.658Z,35.92
2018-12-25T18:06:53.021Z,46.23
2018-12-25T18:09:21.503Z,45.05
2018-12-25T18:11:50.040Z,54.83
2018-12-25T18:14:18.017Z,53.80
2018-12-25T18:16:45.507Z,50.65
2018-12-25T18:19:13.765Z,42.10
2018-12-25T18:24:08.726Z,40.35
2018-12-25T18:29:04.122Z,40.08
2018-12-25T18:31:31.934Z,39.05
2018-12-25T18:34:00.529Z,33.63
2018-12-25T18:36:27.879Z,31.05
2018-12-25T18:38:55.880Z,32.15
2018-12-25T18:41:24.331Z,30.25
2018-12-25T18:43:52.490Z,29.55
2018-12-25T18:46:19.838Z,28.98
2018-12-25T18:48:48.249Z,18.27
2018-12-25T18:51:16.752Z,19.90
2018-12-25T18:56:11.658Z,17.98
2018-12-25T18:58:39.723Z,14.00
2018-12-25T19:03:35.003Z,19.00
2018-12-25T19:06:02.883Z,17.27
2018-12-25T19:08:30.718Z,17.60
2018-12-25T19:10:58.618Z,17.30
2018-12-25T19:13:25.967Z,14.40
2018-12-25T19:15:56.628Z,13.98
2018-12-25T19:18:25.018Z,13.05
2018-12-25T19:20:52.990Z,12.15
2018-12-25T19:23:20.968Z,15.10
2018-12-25T19:25:48.873Z,12.93
2018-12-25T19:28:16.954Z,13.25
2018-12-25T19:30:44.257Z,14.87
2018-12-25T19:33:11.510Z,16.05
2018-12-25T19:35:39.422Z,16.10
2018-12-25T19:38:07.797Z,14.63
2018-12-25T19:40:35.430Z,12.17
2018-12-25T19:46:08.440Z,11.95
2018-12-25T19:48:36.419Z,11.78
2018-12-25T19:51:04.371Z,14.38
2018-12-25T19:53:32.109Z,9.65
2018-12-25T19:55:59.493Z,9.58
2018-12-25T19:58:27.765Z,8.98
2018-12-25T20:00:56.543Z,11.38
2018-12-25T20:03:41.003Z,8.05
2018-12-25T20:06:43.248Z,11.68
2018-12-25T20:10:03.248Z,8.38
2018-12-25T20:13:25.509Z,10.43
2018-12-25T20:16:46.501Z,19.12
2018-12-25T20:19:53.557Z,10.63
2018-12-25T20:23:16.447Z,14.47
2018-12-25T20:26:34.531Z,7.40
2018-12-25T20:30:08.322Z,7.83
2018-12-25T20:33:35.585Z,8.78
2018-12-25T20:37:12.593Z,9.85
2018-12-25T20:40:43.241Z,8.03
2018-12-25T20:44:09.463Z,7.42
2018-12-25T20:47:39.236Z,7.60
2018-12-25T20:51:17.507Z,10.63
2018-12-25T20:57:37.737Z,6.57
2018-12-25T21:02:41.766Z,6.60
2018-12-25T21:06:31.427Z,8.45
2018-12-25T21:10:07.767Z,8.38
2018-12-25T21:13:47.565Z,8.38
2018-12-25T21:17:25.247Z,5.78
2018-12-25T21:20:43.737Z,7.03
2018-12-25T21:27:12.509Z,7.20
2018-12-25T21:29:40.785Z,6.53
2018-12-25T21:32:08.482Z,6.60
2018-12-25T21:34:35.897Z,6.03
2018-12-25T21:37:03.438Z,7.70
2018-12-25T21:39:31.615Z,6.78
2018-12-25T21:41:59.240Z,10.45
2018-12-25T21:44:27.408Z,5.92
2018-12-25T21:46:54.774Z,7.75
2018-12-25T21:49:22.647Z,9.98
2018-12-25T21:51:50.893Z,5.80
2018-12-25T21:54:18.239Z,7.05
2018-12-25T21:56:45.618Z,6.12
2018-12-25T21:59:13.422Z,8.45
2018-12-25T22:01:41.227Z,6.80
2018-12-25T22:04:10.499Z,7.87
2018-12-25T22:06:37.990Z,5.97
2018-12-25T22:09:06.392Z,5.37
2018-12-25T22:11:34.485Z,6.55
2018-12-25T22:14:01.791Z,5.10
2018-12-25T22:16:29.249Z,5.72
2018-12-25T22:18:57.517Z,5.35
2018-12-25T22:21:24.808Z,8.15
2018-12-25T22:23:52.525Z,5.83
2018-12-25T22:26:20.787Z,4.97
2018-12-25T22:28:49.322Z,6.58
2018-12-25T22:31:17.429Z,7.28
2018-12-25T22:33:45.020Z,6.28
2018-12-25T22:36:12.454Z,6.12
2018-12-25T22:38:40.384Z,6.60
2018-12-25T22:41:07.921Z,6.35
2018-12-25T22:43:35.502Z,6.47
2018-12-25T22:46:02.886Z,7.33
2018-12-25T22:48:30.408Z,6.50
2018-12-25T22:50:57.772Z,7.00
2018-12-25T22:55:53.018Z,6.20
2018-12-25T22:58:22.881Z,5.65
2018-12-25T23:00:50.317Z,6.60
2018-12-25T23:03:17.615Z,5.05
2018-12-25T23:05:44.837Z,5.28
2018-12-25T23:08:13.233Z,5.37
2018-12-25T23:10:40.709Z,5.05
2018-12-25T23:15:36.706Z,6.35
2018-12-25T23:18:04.393Z,8.10
2018-12-25T23:20:32.709Z,8.25
2018-12-25T23:25:28.481Z,7.00
2018-12-25T23:27:56.482Z,6.97
2018-12-25T23:30:24.820Z,7.08
2018-12-25T23:32:52.883Z,6.97
2018-12-25T23:35:20.867Z,6.05
2018-12-25T23:37:48.245Z,4.85
2018-12-25T23:40:15.857Z,5.30
2018-12-25T23:42:43.483Z,5.47
2018-12-25T23:45:11.726Z,5.40
2018-12-25T23:50:07.528Z,6.28
2018-12-25T23:52:35.597Z,5.62
2018-12-25T23:55:02.873Z,4.83
2018-12-25T23:57:31.429Z,5.55
2018-12-25T23:59:59.078Z,6.70
